Airfield :
LOGIN :

Register | Disclaimer

   EN    FR    IT 

 










Legend :    VFR   Marginal VFR   IFR   Intensive IFR   Very Intensive IFR
Visi :
Ceiling :
>= 8 km
>= 3000ft
5 to 8 km
1000 to 3000 ft
1500m to 5 km
500 to 1000 ft
800 to 1500m
200 to 500 ft
< 800m
< 200 ft
Symbols :   Thunderstorms  Fog  Heavy snow  Heavy precipitations  Wind > 20 kt
SIGMETs :     Misc.  Thunderstorms  Icing  Turbulence  Mountain Waves  Volcanic Ashes






- Airport Elevation : 1400 ft


LSME - Luzern Emmen

CURRENT METAR :
  • 192350Z AUTO 01003KT 9999NDV NCD M01/M03 Q1040 RMK

EXPIRED METARs :
  • 192320Z AUTO 04004KT 010V070 9999NDV NCD M00/M03 Q1040 RMK
  • 192250Z AUTO 03009KT 9999NDV FEW030 M00/M03 Q1040 RMK
  • 192220Z AUTO 03011KT 9999NDV FEW028 00/M03 Q1039 RMK
  • 192150Z AUTO 02012KT 9999NDV FEW021 M00/M03 Q1039 RMK
  • 192120Z AUTO 03006KT 9999NDV FEW023 M00/M03 Q1039 RMK

Expired Forecast.



MET'MAP, your aeronautical weather chart ! - Copyright ORBIFLY December 2007 - Disclaimer

ORBIFLY MET'MAP TEAM :

Programming & Development : Alexandra Zaïnal
Concept & original design : Baudouin d'Aumeries
Assistance for programming : Marc-Olivier Méhu
Technical & hardware support : Manuel Goepfert

Contact : metmap@orbifly.com




SOURCES & CREDITS :

   NOAA